createdAt,value
2023-02-28T00:01:19.700Z,72.20
2023-02-28T00:03:46.631Z,72.20
2023-02-28T00:06:13.411Z,72.50
2023-02-28T00:08:40.446Z,72.70
2023-02-28T00:11:13.292Z,72.80
2023-02-28T00:13:43.441Z,72.90
2023-02-28T00:16:14.285Z,72.90
2023-02-28T00:18:41.606Z,73.00
2023-02-28T00:21:09.160Z,73.00
2023-02-28T00:23:36.573Z,73.10
2023-02-28T00:26:03.458Z,73.40
2023-02-28T00:28:30.412Z,73.30
2023-02-28T00:30:58.616Z,73.30
2023-02-28T00:33:25.468Z,73.40
2023-02-28T00:35:52.275Z,73.50
2023-02-28T00:38:19.053Z,73.90
2023-02-28T00:40:45.855Z,73.90
2023-02-28T00:43:12.675Z,73.80
2023-02-28T00:45:39.446Z,73.80
2023-02-28T00:48:07.153Z,74.00
2023-02-28T00:50:33.956Z,74.00
2023-02-28T00:53:00.745Z,74.20
2023-02-28T00:55:27.569Z,74.90
2023-02-28T00:57:54.369Z,74.80
2023-02-28T01:00:21.278Z,74.90
2023-02-28T01:02:48.141Z,74.80
2023-02-28T01:05:15.072Z,76.60
2023-02-28T01:07:41.856Z,75.00
2023-02-28T01:10:09.634Z,75.30
2023-02-28T01:12:36.404Z,75.40
2023-02-28T01:15:03.344Z,75.40
2023-02-28T01:17:30.102Z,75.60
2023-02-28T01:19:57.225Z,75.60
2023-02-28T01:22:24.034Z,75.90
2023-02-28T01:24:50.814Z,76.00
2023-02-28T01:27:17.600Z,76.20
2023-02-28T01:29:44.439Z,76.30
2023-02-28T01:32:11.362Z,76.50
2023-02-28T01:34:38.186Z,76.60
2023-02-28T01:37:05.307Z,76.80
2023-02-28T01:39:32.111Z,76.90
2023-02-28T01:41:58.952Z,77.10
2023-02-28T01:45:01.932Z,77.10
2023-02-28T01:47:41.605Z,77.40
2023-02-28T01:50:23.106Z,77.50
2023-02-28T01:52:51.589Z,77.80
2023-02-28T01:55:21.193Z,78.20
2023-02-28T01:57:52.284Z,78.30
2023-02-28T02:00:24.080Z,78.50
2023-02-28T02:02:54.901Z,78.70
2023-02-28T02:05:25.082Z,78.90
2023-02-28T02:07:56.585Z,79.00
2023-02-28T02:10:31.871Z,79.30
2023-02-28T02:13:23.320Z,79.40
2023-02-28T02:16:05.158Z,79.60
2023-02-28T02:19:02.984Z,79.90
2023-02-28T02:21:41.781Z,79.80
2023-02-28T02:24:20.354Z,80.00
2023-02-28T02:27:19.928Z,80.10
2023-02-28T02:30:16.706Z,80.30
2023-02-28T02:33:04.581Z,80.40
2023-02-28T02:36:10.200Z,80.60
2023-02-28T02:38:45.368Z,81.00
2023-02-28T02:41:28.632Z,81.00
2023-02-28T02:44:39.629Z,81.30
2023-02-28T02:47:11.395Z,81.50
2023-02-28T02:49:41.865Z,81.70
2023-02-28T02:52:13.253Z,81.90
2023-02-28T02:54:44.220Z,82.10
2023-02-28T02:57:16.993Z,82.20
2023-02-28T02:59:45.010Z,82.50
2023-02-28T03:02:15.824Z,82.70
2023-02-28T03:04:52.586Z,82.70
2023-02-28T03:07:19.298Z,82.70
2023-02-28T03:09:53.953Z,83.10
2023-02-28T03:12:24.506Z,83.10
2023-02-28T03:15:20.945Z,83.50
2023-02-28T03:17:59.667Z,83.70
2023-02-28T03:20:40.916Z,83.90
2023-02-28T03:23:22.661Z,83.80
2023-02-28T03:26:07.503Z,84.20
2023-02-28T03:29:13.936Z,84.60
2023-02-28T03:31:49.431Z,84.60
2023-02-28T03:34:26.788Z,84.70
2023-02-28T03:37:02.870Z,84.60
2023-02-28T03:39:37.062Z,85.00
2023-02-28T03:42:10.726Z,84.90
2023-02-28T03:44:44.179Z,85.20
2023-02-28T03:47:26.206Z,85.10
2023-02-28T03:50:17.454Z,85.30
2023-02-28T03:53:02.036Z,85.70
2023-02-28T03:56:13.780Z,85.70
2023-02-28T03:59:07.819Z,85.50
2023-02-28T04:01:36.888Z,85.70
2023-02-28T04:04:04.534Z,85.80
2023-02-28T04:06:33.424Z,85.80
2023-02-28T04:09:01.052Z,85.70
2023-02-28T04:11:53.170Z,85.90
2023-02-28T04:14:20.227Z,86.00
2023-02-28T04:16:46.998Z,86.20
2023-02-28T04:19:15.370Z,86.20
2023-02-28T04:21:50.452Z,86.50
2023-02-28T04:24:20.931Z,86.90
2023-02-28T04:26:50.663Z,86.90
2023-02-28T04:29:26.964Z,87.10
2023-02-28T04:31:54.932Z,87.20
2023-02-28T04:34:22.326Z,87.10
2023-02-28T04:37:10.366Z,87.20
2023-02-28T04:39:39.845Z,87.30
2023-02-28T04:42:07.049Z,87.50
2023-02-28T04:44:33.824Z,88.00
2023-02-28T04:47:00.706Z,87.60
2023-02-28T04:49:27.577Z,88.00
2023-02-28T04:51:54.340Z,88.00
2023-02-28T04:54:21.231Z,88.00
2023-02-28T04:56:50.718Z,87.90
2023-02-28T04:59:18.178Z,87.90
2023-02-28T05:01:49.292Z,88.00
2023-02-28T05:04:16.588Z,88.10
2023-02-28T05:06:43.646Z,88.10
2023-02-28T05:09:12.435Z,88.10
2023-02-28T05:11:40.093Z,88.00
2023-02-28T05:14:12.568Z,88.20
2023-02-28T05:16:39.895Z,88.30
2023-02-28T05:19:06.856Z,88.30
2023-02-28T05:21:42.033Z,88.60
2023-02-28T05:24:12.285Z,88.60
2023-02-28T05:26:42.363Z,89.00
2023-02-28T05:29:09.839Z,88.90
2023-02-28T05:31:37.524Z,88.80
2023-02-28T05:34:07.251Z,89.10
2023-02-28T05:36:34.567Z,89.20
2023-02-28T05:39:01.357Z,89.40
2023-02-28T05:41:28.685Z,89.50
2023-02-28T05:43:55.865Z,89.50
2023-02-28T05:46:22.776Z,89.60
2023-02-28T05:48:50.041Z,89.70
2023-02-28T05:51:17.441Z,89.70
2023-02-28T05:53:44.424Z,89.70
2023-02-28T05:56:11.136Z,89.80
2023-02-28T05:58:37.882Z,89.90
2023-02-28T06:01:21.666Z,90.00
2023-02-28T06:03:48.412Z,90.10
2023-02-28T06:06:15.190Z,89.80
2023-02-28T06:08:44.293Z,90.00
2023-02-28T06:11:11.002Z,89.10
2023-02-28T06:13:37.807Z,89.80
2023-02-28T06:16:04.761Z,90.00
2023-02-28T06:18:31.601Z,90.00
2023-02-28T06:20:58.357Z,90.00
2023-02-28T06:23:25.404Z,90.00
2023-02-28T06:25:53.888Z,90.40
2023-02-28T06:28:20.840Z,90.30
2023-02-28T06:30:47.526Z,90.30
2023-02-28T06:33:14.254Z,90.20
2023-02-28T06:35:41.314Z,90.10
2023-02-28T06:38:08.070Z,90.20
2023-02-28T06:40:36.665Z,90.20
2023-02-28T06:43:04.173Z,90.20
2023-02-28T06:45:31.013Z,90.20
2023-02-28T06:47:57.836Z,90.20
2023-02-28T06:50:24.612Z,90.20
2023-02-28T06:52:54.947Z,90.20
2023-02-28T06:55:21.783Z,90.30
2023-02-28T06:57:48.806Z,90.40
2023-02-28T07:00:16.054Z,90.40
2023-02-28T07:02:42.830Z,90.40
2023-02-28T07:05:09.745Z,90.70
2023-02-28T07:07:39.094Z,90.50
2023-02-28T07:10:06.335Z,90.40
2023-02-28T07:12:33.566Z,90.50
2023-02-28T07:15:00.326Z,90.50
2023-02-28T07:17:27.093Z,90.60
2023-02-28T07:19:53.777Z,90.60
2023-02-28T07:22:20.562Z,90.50
2023-02-28T07:24:47.459Z,90.50
2023-02-28T07:27:24.597Z,90.50
2023-02-28T07:29:51.972Z,90.40
2023-02-28T07:32:19.676Z,90.90
2023-02-28T07:34:47.053Z,90.50
2023-02-28T07:37:13.899Z,90.50
2023-02-28T07:39:43.163Z,90.40
2023-02-28T07:42:12.739Z,90.40
2023-02-28T07:44:43.546Z,90.40
2023-02-28T07:47:11.416Z,90.40
2023-02-28T07:49:38.829Z,90.80
2023-02-28T07:52:10.416Z,90.40
2023-02-28T07:54:38.697Z,90.40
2023-02-28T07:57:05.418Z,90.40
2023-02-28T07:59:32.467Z,90.40
2023-02-28T08:02:00.251Z,90.40
2023-02-28T08:04:27.383Z,90.40
2023-02-28T08:06:54.355Z,90.40
2023-02-28T08:09:21.498Z,90.40
2023-02-28T08:11:48.338Z,90.20
2023-02-28T08:14:15.237Z,90.20
2023-02-28T08:16:42.037Z,90.20
2023-02-28T08:19:08.777Z,90.40
2023-02-28T08:21:35.961Z,90.20
2023-02-28T08:24:02.715Z,90.30
2023-02-28T08:26:29.431Z,90.30
2023-02-28T08:28:57.490Z,90.30
2023-02-28T08:31:25.285Z,90.40
2023-02-28T08:33:53.894Z,90.40
2023-02-28T08:36:20.945Z,89.90
2023-02-28T08:38:47.794Z,89.70
2023-02-28T08:41:14.660Z,90.00
2023-02-28T08:43:42.052Z,89.90
2023-02-28T08:46:11.540Z,89.60
2023-02-28T08:48:41.529Z,88.00
2023-02-28T08:51:22.451Z,88.60
2023-02-28T08:53:51.858Z,88.70
2023-02-28T08:56:18.921Z,87.70
2023-02-28T08:58:47.754Z,88.20
2023-02-28T09:01:15.959Z,88.10
2023-02-28T09:03:43.237Z,87.80
2023-02-28T09:06:11.390Z,87.40
2023-02-28T09:08:38.309Z,88.40
2023-02-28T09:11:05.653Z,87.50
2023-02-28T09:13:33.659Z,86.80
2023-02-28T09:16:03.068Z,86.90
2023-02-28T09:18:29.986Z,86.60
2023-02-28T09:20:57.364Z,86.40
2023-02-28T09:23:24.468Z,86.50
2023-02-28T09:25:53.863Z,86.80
2023-02-28T09:28:21.462Z,86.50
2023-02-28T09:30:51.151Z,86.20
2023-02-28T09:33:20.705Z,86.20
2023-02-28T09:35:51.188Z,86.20
2023-02-28T09:38:19.009Z,86.40
2023-02-28T09:40:53.800Z,86.40
2023-02-28T09:43:26.236Z,86.20
2023-02-28T09:46:19.140Z,86.20
2023-02-28T09:48:49.268Z,85.80
2023-02-28T09:51:36.265Z,85.50
2023-02-28T09:54:03.626Z,85.90
2023-02-28T09:56:42.884Z,85.80
2023-02-28T09:59:19.094Z,85.90
2023-02-28T10:02:00.233Z,86.10
2023-02-28T10:04:53.634Z,85.60
2023-02-28T10:07:45.423Z,85.50
2023-02-28T10:10:25.467Z,85.00
2023-02-28T10:12:55.946Z,85.50
2023-02-28T10:15:27.360Z,85.60
2023-02-28T10:18:08.769Z,86.00
2023-02-28T10:20:41.022Z,86.40
2023-02-28T10:23:10.956Z,85.70
2023-02-28T10:25:39.639Z,85.20
2023-02-28T10:28:11.167Z,85.00
2023-02-28T10:30:50.608Z,84.90
2023-02-28T10:33:35.201Z,85.10
2023-02-28T10:36:03.233Z,85.20
2023-02-28T10:38:36.045Z,85.60
2023-02-28T10:41:11.482Z,85.10
2023-02-28T10:43:40.477Z,84.60
2023-02-28T10:46:10.054Z,85.10
2023-02-28T10:48:46.321Z,84.90
2023-02-28T10:51:15.203Z,84.80
2023-02-28T10:54:00.130Z,85.00
2023-02-28T10:56:28.447Z,84.40
2023-02-28T10:58:57.212Z,84.80
2023-02-28T11:01:34.151Z,85.20
2023-02-28T11:04:01.223Z,85.00
2023-02-28T11:06:34.703Z,84.80
2023-02-28T11:09:33.342Z,84.50
2023-02-28T11:12:00.949Z,82.70
2023-02-28T11:14:31.151Z,82.00
2023-02-28T11:17:04.316Z,82.00
2023-02-28T11:19:47.792Z,81.30
2023-02-28T11:22:21.735Z,80.50
2023-02-28T11:24:53.028Z,79.70
2023-02-28T11:27:26.969Z,79.60
2023-02-28T11:29:54.103Z,79.20
2023-02-28T11:32:24.297Z,78.20
2023-02-28T11:35:05.569Z,78.20
2023-02-28T11:37:32.829Z,77.20
2023-02-28T11:39:59.408Z,76.70
2023-02-28T11:42:41.344Z,76.50
2023-02-28T11:45:23.847Z,76.80
2023-02-28T11:48:09.609Z,75.90
2023-02-28T11:50:39.366Z,76.00
2023-02-28T11:53:28.222Z,75.80
2023-02-28T11:55:54.856Z,75.40
2023-02-28T11:58:24.259Z,74.00
2023-02-28T12:01:01.057Z,73.40
2023-02-28T12:03:28.684Z,74.20
2023-02-28T12:06:27.941Z,73.90
2023-02-28T12:09:03.837Z,73.30
2023-02-28T12:11:41.835Z,73.60
2023-02-28T12:14:42.690Z,72.30
2023-02-28T12:17:12.289Z,72.60
2023-02-28T12:19:42.705Z,73.50
2023-02-28T12:22:18.580Z,73.00
2023-02-28T12:24:51.709Z,71.20
2023-02-28T12:27:23.008Z,70.40
2023-02-28T12:30:03.968Z,70.80
2023-02-28T12:32:43.519Z,70.60
2023-02-28T12:35:10.234Z,69.60
2023-02-28T12:38:07.619Z,71.10
2023-02-28T12:41:13.804Z,69.00
2023-02-28T12:43:48.580Z,68.80
2023-02-28T12:46:26.573Z,69.40
2023-02-28T12:48:59.832Z,68.80
2023-02-28T12:51:28.230Z,68.40
2023-02-28T12:54:14.276Z,68.20
2023-02-28T12:57:19.145Z,66.90
2023-02-28T12:59:52.027Z,66.40
2023-02-28T13:02:33.781Z,65.40
2023-02-28T13:05:03.660Z,63.50
2023-02-28T13:07:42.371Z,64.20
2023-02-28T13:10:11.306Z,64.30
2023-02-28T13:12:51.635Z,62.10
2023-02-28T13:15:26.306Z,60.90
2023-02-28T13:17:56.020Z,62.40
2023-02-28T13:20:38.272Z,63.50
2023-02-28T13:23:25.181Z,63.10
2023-02-28T13:25:54.619Z,63.50
2023-02-28T13:28:49.251Z,62.00
2023-02-28T13:31:16.529Z,60.90
2023-02-28T13:33:58.437Z,61.40
2023-02-28T13:36:31.544Z,61.90
2023-02-28T13:39:05.097Z,61.50
2023-02-28T13:41:32.221Z,61.50
2023-02-28T13:44:19.038Z,60.60
2023-02-28T13:46:48.529Z,60.20
2023-02-28T13:49:24.306Z,61.00
2023-02-28T13:52:07.477Z,60.20
2023-02-28T13:54:40.214Z,59.70
2023-02-28T13:57:12.765Z,60.10
2023-02-28T14:00:06.529Z,60.60
2023-02-28T14:03:02.692Z,59.90
2023-02-28T14:05:32.467Z,61.10
2023-02-28T14:08:05.640Z,60.60
2023-02-28T14:10:38.181Z,60.40
2023-02-28T14:13:31.965Z,59.90
2023-02-28T14:16:04.509Z,61.20
2023-02-28T14:18:41.388Z,61.10
2023-02-28T14:21:14.193Z,60.50
2023-02-28T14:23:47.349Z,60.90
2023-02-28T14:26:52.524Z,61.40
2023-02-28T14:29:38.731Z,61.90
2023-02-28T14:32:11.819Z,62.50
2023-02-28T14:37:34.743Z,62.00
2023-02-28T14:40:02.929Z,62.40
2023-02-28T14:42:35.205Z,62.50
2023-02-28T14:45:02.805Z,62.10
2023-02-28T14:47:33.317Z,61.40
2023-02-28T14:50:01.753Z,62.50
2023-02-28T14:52:30.760Z,63.60
2023-02-28T14:55:04.230Z,63.80
2023-02-28T14:57:33.468Z,63.90
2023-02-28T15:00:12.840Z,63.20
2023-02-28T15:02:40.694Z,63.40
2023-02-28T15:05:13.498Z,64.00
2023-02-28T15:07:40.990Z,64.10
2023-02-28T15:10:27.843Z,64.40
2023-02-28T15:12:57.376Z,65.00
2023-02-28T15:16:01.904Z,65.00
2023-02-28T15:18:41.337Z,65.60
2023-02-28T15:21:15.565Z,66.10
2023-02-28T15:23:46.961Z,66.50
2023-02-28T15:26:18.184Z,66.50
2023-02-28T15:28:45.810Z,66.80
2023-02-28T15:31:27.325Z,67.10
2023-02-28T15:33:57.196Z,66.80
2023-02-28T15:36:29.987Z,67.00
2023-02-28T15:39:01.544Z,66.90
2023-02-28T15:41:41.720Z,66.70
2023-02-28T15:44:30.761Z,67.10
2023-02-28T15:47:04.829Z,67.70
2023-02-28T15:49:57.098Z,67.70
2023-02-28T15:52:38.675Z,68.00
2023-02-28T15:55:13.591Z,67.60
2023-02-28T15:57:42.031Z,67.90
2023-02-28T16:00:14.894Z,68.20
2023-02-28T16:02:41.867Z,67.90
2023-02-28T16:05:08.628Z,68.20
2023-02-28T16:07:44.992Z,68.50
2023-02-28T16:10:15.078Z,68.30
2023-02-28T16:12:42.949Z,68.80
2023-02-28T16:15:22.464Z,69.30
2023-02-28T16:17:49.980Z,69.40
2023-02-28T16:20:30.192Z,69.60
2023-02-28T16:22:57.427Z,69.60
2023-02-28T16:25:34.674Z,69.70
2023-02-28T16:28:02.022Z,70.00
2023-02-28T16:30:32.513Z,69.60
2023-02-28T16:32:59.648Z,69.60
2023-02-28T16:35:26.718Z,69.20
2023-02-28T16:37:54.905Z,69.60
2023-02-28T16:40:26.707Z,69.90
2023-02-28T16:42:56.733Z,70.40
2023-02-28T16:45:26.123Z,70.40
2023-02-28T16:47:53.522Z,70.10
2023-02-28T16:50:23.484Z,70.10
2023-02-28T16:52:53.227Z,69.90
2023-02-28T16:55:20.282Z,70.10
2023-02-28T16:57:55.396Z,70.50
2023-02-28T17:00:23.018Z,70.60
2023-02-28T17:02:49.882Z,70.50
2023-02-28T17:05:17.016Z,70.90
2023-02-28T17:07:44.459Z,71.50
2023-02-28T17:10:26.323Z,71.80
2023-02-28T17:12:54.998Z,72.00
2023-02-28T17:15:23.423Z,72.20
2023-02-28T17:17:50.934Z,72.40
2023-02-28T17:20:23.441Z,72.60
2023-02-28T17:22:54.792Z,72.60
2023-02-28T17:25:21.916Z,73.00
2023-02-28T17:27:48.737Z,73.50
2023-02-28T17:30:19.777Z,73.70
2023-02-28T17:32:46.984Z,73.90
2023-02-28T17:35:14.426Z,74.30
2023-02-28T17:37:41.441Z,74.40
2023-02-28T17:40:15.712Z,74.50
2023-02-28T17:42:43.078Z,74.70
2023-02-28T17:45:10.461Z,74.80
2023-02-28T17:47:37.449Z,74.90
2023-02-28T17:50:04.857Z,75.90
2023-02-28T17:52:31.985Z,75.20
2023-02-28T17:54:59.208Z,75.40
2023-02-28T17:57:25.877Z,75.50
2023-02-28T17:59:52.628Z,75.70
2023-02-28T18:02:19.409Z,75.60
2023-02-28T18:04:46.154Z,75.90
2023-02-28T18:07:13.242Z,76.20
2023-02-28T18:09:40.056Z,76.20
2023-02-28T18:12:06.874Z,76.40
2023-02-28T18:14:33.580Z,76.50
2023-02-28T18:17:00.447Z,76.70
2023-02-28T18:19:27.223Z,76.60
2023-02-28T18:21:54.887Z,76.20
2023-02-28T18:24:24.364Z,76.40
2023-02-28T18:26:51.627Z,76.80
2023-02-28T18:29:22.938Z,76.90
2023-02-28T18:31:50.554Z,76.70
2023-02-28T18:34:17.614Z,77.50
2023-02-28T18:36:47.105Z,77.70
2023-02-28T18:39:16.846Z,78.00
2023-02-28T18:41:43.749Z,78.00
2023-02-28T18:44:19.944Z,78.20
2023-02-28T18:46:48.838Z,78.30
2023-02-28T18:49:15.868Z,78.50
2023-02-28T18:51:46.676Z,78.90
2023-02-28T18:54:15.305Z,79.60
2023-02-28T18:56:42.491Z,79.00
2023-02-28T18:59:10.564Z,79.20
2023-02-28T19:01:37.532Z,79.30
2023-02-28T19:04:05.346Z,79.10
2023-02-28T19:06:33.656Z,79.00
2023-02-28T19:09:02.420Z,79.90
2023-02-28T19:11:29.766Z,79.10
2023-02-28T19:13:57.334Z,79.80
2023-02-28T19:16:24.773Z,78.90
2023-02-28T19:18:51.972Z,79.20
2023-02-28T19:21:20.917Z,79.40
2023-02-28T19:23:48.474Z,79.50
2023-02-28T19:26:20.967Z,79.50
2023-02-28T19:28:48.354Z,79.30
2023-02-28T19:31:19.947Z,79.90
2023-02-28T19:33:46.859Z,79.90
2023-02-28T19:36:15.410Z,80.10
2023-02-28T19:38:44.487Z,80.30
2023-02-28T19:41:13.062Z,80.40
2023-02-28T19:43:40.020Z,80.50
2023-02-28T19:46:09.590Z,80.70
2023-02-28T19:48:36.900Z,80.70
2023-02-28T19:51:11.660Z,80.70
2023-02-28T19:53:40.285Z,80.50
2023-02-28T19:56:08.462Z,80.50
2023-02-28T19:58:36.172Z,80.50
2023-02-28T20:01:16.848Z,80.50
2023-02-28T20:03:47.961Z,80.80
2023-02-28T20:06:15.298Z,80.60
2023-02-28T20:08:42.529Z,81.30
2023-02-28T20:11:12.954Z,80.40
2023-02-28T20:13:39.860Z,80.60
2023-02-28T20:16:10.184Z,80.40
2023-02-28T20:18:39.165Z,81.60
2023-02-28T20:21:09.132Z,80.80
2023-02-28T20:23:38.267Z,80.90
2023-02-28T20:26:05.382Z,81.00
2023-02-28T20:28:32.556Z,81.30
2023-02-28T20:31:00.751Z,81.00
2023-02-28T20:33:28.131Z,81.10
2023-02-28T20:36:02.314Z,81.00
2023-02-28T20:38:29.861Z,81.00
2023-02-28T20:41:01.136Z,80.80
2023-02-28T20:43:28.799Z,80.70
2023-02-28T20:46:01.838Z,80.60
2023-02-28T20:48:30.740Z,80.70
2023-02-28T20:50:59.369Z,80.80
2023-02-28T20:53:28.786Z,80.80
2023-02-28T20:56:00.735Z,81.20
2023-02-28T20:58:30.456Z,80.90
2023-02-28T21:01:18.432Z,81.00
2023-02-28T21:03:50.480Z,81.10
2023-02-28T21:06:19.547Z,81.20
2023-02-28T21:08:46.676Z,81.40
2023-02-28T21:11:18.578Z,81.60
2023-02-28T21:13:46.743Z,81.60
2023-02-28T21:16:17.501Z,81.60
2023-02-28T21:18:44.954Z,81.60
2023-02-28T21:21:14.943Z,81.50
2023-02-28T21:23:42.776Z,81.60
2023-02-28T21:26:12.413Z,81.60
2023-02-28T21:28:44.042Z,82.00
2023-02-28T21:31:14.672Z,81.90
2023-02-28T21:33:41.650Z,81.70
2023-02-28T21:36:12.172Z,81.70
2023-02-28T21:38:40.643Z,81.90
2023-02-28T21:41:08.347Z,82.00
2023-02-28T21:43:35.509Z,82.20
2023-02-28T21:46:08.145Z,82.20
2023-02-28T21:48:35.791Z,80.40
2023-02-28T21:51:06.599Z,82.40
2023-02-28T21:53:35.616Z,84.70
2023-02-28T21:56:08.179Z,82.50
2023-02-28T21:58:34.912Z,82.60
2023-02-28T22:01:12.991Z,82.50
2023-02-28T22:03:40.409Z,82.50
2023-02-28T22:06:19.569Z,82.90
2023-02-28T22:08:49.496Z,82.80
2023-02-28T22:11:17.135Z,82.70
2023-02-28T22:13:45.109Z,83.20
2023-02-28T22:16:14.355Z,82.90
2023-02-28T22:18:41.997Z,83.40
2023-02-28T22:21:10.507Z,83.30
2023-02-28T22:23:38.927Z,83.40
2023-02-28T22:26:08.050Z,83.60
2023-02-28T22:28:36.162Z,83.60
2023-02-28T22:31:13.979Z,83.70
2023-02-28T22:33:41.114Z,84.00
2023-02-28T22:36:08.933Z,84.20
2023-02-28T22:38:35.872Z,84.50
2023-02-28T22:41:04.437Z,84.50
2023-02-28T22:43:31.509Z,84.70
2023-02-28T22:46:03.655Z,84.90
2023-02-28T22:48:30.744Z,85.00
2023-02-28T22:51:06.779Z,85.00
2023-02-28T22:53:35.586Z,85.60
2023-02-28T22:56:02.939Z,85.70
2023-02-28T22:58:30.377Z,86.00
2023-02-28T23:01:04.787Z,86.20
2023-02-28T23:03:31.651Z,86.00
2023-02-28T23:05:58.433Z,86.00
2023-02-28T23:08:25.352Z,85.80
2023-02-28T23:10:52.820Z,85.90
2023-02-28T23:13:20.251Z,85.80
2023-02-28T23:15:47.797Z,85.80
2023-02-28T23:18:15.650Z,85.90
2023-02-28T23:20:42.470Z,86.00
2023-02-28T23:23:10.251Z,86.00
2023-02-28T23:25:40.570Z,86.10
2023-02-28T23:28:10.135Z,86.90
2023-02-28T23:30:38.638Z,86.20
2023-02-28T23:33:08.500Z,86.40
2023-02-28T23:35:35.337Z,86.40
2023-02-28T23:38:02.313Z,86.30
2023-02-28T23:40:29.046Z,86.60
2023-02-28T23:42:56.023Z,86.60
2023-02-28T23:45:22.874Z,86.90
2023-02-28T23:47:49.561Z,86.80
2023-02-28T23:50:16.626Z,86.90
2023-02-28T23:52:43.677Z,86.90
2023-02-28T23:55:10.854Z,86.90
2023-02-28T23:57:37.633Z,86.80
